createdAt,value
2017-10-11T00:00:52.052Z,12.50
2017-10-11T00:03:19.576Z,12.50
2017-10-11T00:10:44.807Z,12.70
2017-10-11T00:13:12.339Z,12.50
2017-10-11T00:15:39.835Z,14.30
2017-10-11T00:18:07.734Z,12.60
2017-10-11T00:20:35.659Z,12.60
2017-10-11T00:23:03.174Z,12.60
2017-10-11T00:25:30.680Z,12.60
2017-10-11T00:27:59.692Z,12.60
2017-10-11T00:30:27.218Z,12.60
2017-10-11T00:32:54.724Z,12.60
2017-10-11T00:35:22.237Z,12.60
2017-10-11T00:37:49.752Z,12.50
2017-10-11T00:40:17.263Z,12.60
2017-10-11T00:42:45.170Z,12.50
2017-10-11T00:45:12.688Z,12.50
2017-10-11T00:47:40.203Z,12.50
2017-10-11T00:50:07.710Z,12.50
2017-10-11T00:52:35.219Z,12.50
2017-10-11T00:55:02.728Z,12.40
2017-10-11T00:57:30.227Z,12.50
2017-10-11T00:59:58.123Z,12.50
2017-10-11T01:02:26.403Z,12.40
2017-10-11T01:04:54.700Z,12.40
2017-10-11T01:07:23.339Z,12.30
2017-10-11T01:09:50.846Z,12.30
2017-10-11T01:12:18.349Z,12.20
2017-10-11T01:14:45.863Z,12.20
2017-10-11T01:17:13.765Z,12.10
2017-10-11T01:19:41.265Z,12.10
2017-10-11T01:22:08.783Z,12.10
2017-10-11T01:24:36.279Z,12.00
2017-10-11T01:27:05.299Z,12.10
2017-10-11T01:29:32.822Z,12.10
2017-10-11T01:32:00.723Z,12.10
2017-10-11T01:34:28.228Z,12.10
2017-10-11T01:36:56.493Z,12.10
2017-10-11T01:39:23.996Z,12.00
2017-10-11T01:41:51.496Z,12.00
2017-10-11T01:44:19.012Z,12.00
2017-10-11T01:46:46.525Z,12.00
2017-10-11T01:49:14.052Z,11.90
2017-10-11T01:51:41.560Z,11.90
2017-10-11T01:54:09.475Z,11.90
2017-10-11T01:56:36.975Z,11.90
2017-10-11T01:59:04.491Z,11.80
2017-10-11T02:01:31.995Z,11.80
2017-10-11T02:04:00.667Z,11.80
2017-10-11T02:06:28.171Z,11.70
2017-10-11T02:08:56.451Z,11.80
2017-10-11T02:11:24.723Z,11.80
2017-10-11T02:13:52.239Z,11.80
2017-10-11T02:16:19.744Z,11.70
2017-10-11T02:18:47.278Z,11.60
2017-10-11T02:21:15.162Z,11.60
2017-10-11T02:23:42.667Z,11.50
2017-10-11T02:26:11.308Z,11.50
2017-10-11T02:28:38.811Z,11.50
2017-10-11T02:31:07.818Z,11.40
2017-10-11T02:33:35.319Z,11.50
2017-10-11T02:36:02.834Z,11.40
2017-10-11T02:38:30.340Z,11.30
2017-10-11T02:40:57.852Z,11.30
2017-10-11T02:43:25.351Z,11.40
2017-10-11T02:45:53.994Z,11.40
2017-10-11T02:48:21.555Z,11.30
2017-10-11T02:50:49.059Z,11.30
2017-10-11T02:53:16.959Z,11.20
2017-10-11T02:55:44.472Z,11.20
2017-10-11T02:58:11.965Z,11.20
2017-10-11T03:00:39.468Z,11.20
2017-10-11T03:03:06.959Z,11.10
2017-10-11T03:05:34.454Z,11.10
2017-10-11T03:08:01.963Z,11.10
2017-10-11T03:10:30.240Z,11.10
2017-10-11T03:15:26.602Z,11.00
2017-10-11T03:17:54.116Z,11.00
2017-10-11T03:20:21.616Z,11.00
2017-10-11T03:22:49.145Z,11.10
2017-10-11T03:25:16.660Z,11.10
2017-10-11T03:27:45.312Z,11.10
2017-10-11T03:30:13.221Z,11.20
2017-10-11T03:32:40.743Z,11.00
2017-10-11T03:35:08.263Z,11.00
2017-10-11T03:37:36.171Z,10.90
2017-10-11T03:40:03.689Z,10.90
2017-10-11T03:42:31.207Z,10.90
2017-10-11T03:44:58.716Z,10.90
2017-10-11T03:47:26.319Z,10.80
2017-10-11T03:49:53.851Z,10.80
2017-10-11T03:52:21.347Z,10.80
2017-10-11T03:59:47.375Z,10.80
2017-10-11T04:02:14.874Z,10.90
2017-10-11T04:04:42.805Z,10.90
2017-10-11T04:07:10.324Z,10.80
2017-10-11T04:09:38.246Z,10.70
2017-10-11T04:12:05.753Z,10.70
2017-10-11T04:14:33.282Z,10.70
2017-10-11T04:17:01.184Z,10.60
2017-10-11T04:19:29.479Z,10.60
2017-10-11T04:21:57.754Z,10.60
2017-10-11T04:24:26.803Z,10.60
2017-10-11T04:26:54.307Z,10.50
2017-10-11T04:29:23.340Z,10.50
2017-10-11T04:31:50.859Z,10.50
2017-10-11T04:34:20.136Z,10.60
2017-10-11T04:36:48.040Z,10.60
2017-10-11T04:39:15.944Z,10.50
2017-10-11T04:41:43.451Z,10.50
2017-10-11T04:44:12.475Z,10.50
2017-10-11T04:46:39.987Z,10.50
2017-10-11T04:49:09.036Z,10.50
2017-10-11T04:51:36.932Z,10.50
2017-10-11T04:54:04.832Z,10.50
2017-10-11T04:56:32.328Z,10.40
2017-10-11T04:58:59.832Z,10.40
2017-10-11T05:01:27.339Z,10.40
2017-10-11T05:03:54.850Z,10.30
2017-10-11T05:06:22.355Z,10.30
2017-10-11T05:08:50.651Z,10.40
2017-10-11T05:11:18.923Z,10.30
2017-10-11T05:13:47.187Z,10.30
2017-10-11T05:16:15.462Z,10.30
2017-10-11T05:18:42.962Z,10.30
2017-10-11T05:21:11.968Z,10.30
2017-10-11T05:26:08.339Z,10.30
2017-10-11T05:28:35.858Z,10.30
2017-10-11T05:33:32.222Z,10.20
2017-10-11T05:35:59.734Z,10.30
2017-10-11T05:38:27.242Z,10.30
2017-10-11T05:40:54.754Z,10.20
2017-10-11T05:43:22.267Z,10.20
2017-10-11T05:45:50.176Z,10.30
2017-10-11T05:55:44.666Z,10.40
2017-10-11T05:58:12.948Z,10.40
2017-10-11T06:00:41.236Z,10.40
2017-10-11T06:03:08.753Z,10.30
2017-10-11T06:05:36.283Z,10.40
2017-10-11T06:08:04.181Z,10.40
2017-10-11T06:10:31.707Z,10.40
2017-10-11T06:12:59.222Z,10.40
2017-10-11T06:17:55.586Z,10.50
2017-10-11T06:20:23.511Z,10.60
2017-10-11T06:25:19.900Z,10.70
2017-10-11T06:27:47.395Z,10.70
2017-10-11T06:30:15.704Z,10.80
2017-10-11T06:32:43.976Z,10.80
2017-10-11T06:35:11.507Z,10.80
2017-10-11T06:37:40.160Z,10.80
2017-10-11T06:40:08.472Z,10.90
2017-10-11T06:45:04.884Z,11.00
2017-10-11T06:47:32.423Z,11.00
2017-10-11T06:50:00.005Z,11.10
2017-10-11T06:52:28.654Z,11.10
2017-10-11T06:54:56.182Z,11.10
2017-10-11T06:57:24.827Z,11.10
2017-10-11T06:59:53.489Z,11.30
2017-10-11T07:02:21.388Z,11.40
2017-10-11T07:04:48.903Z,11.40
2017-10-11T07:07:17.942Z,11.40
2017-10-11T07:09:45.836Z,11.40
2017-10-11T07:12:13.749Z,11.50
2017-10-11T07:14:42.021Z,11.50
2017-10-11T07:17:09.918Z,11.50
2017-10-11T07:19:37.438Z,11.60
2017-10-11T07:22:06.475Z,11.70
2017-10-11T07:24:33.999Z,11.80
2017-10-11T07:29:30.379Z,12.10
2017-10-11T07:31:59.053Z,12.20
2017-10-11T07:34:26.583Z,12.30
2017-10-11T07:36:54.103Z,12.40
2017-10-11T07:39:22.022Z,12.30
2017-10-11T07:41:49.532Z,12.50
2017-10-11T07:44:17.034Z,12.60
2017-10-11T07:46:44.556Z,12.70
2017-10-11T07:49:12.835Z,12.80
2017-10-11T07:51:41.100Z,13.00
2017-10-11T07:54:09.380Z,13.10
2017-10-11T07:56:37.661Z,13.10
2017-10-11T07:59:06.696Z,13.40
2017-10-11T08:01:34.236Z,13.50
2017-10-11T08:04:01.744Z,13.60
2017-10-11T08:06:29.303Z,13.60
2017-10-11T08:08:58.436Z,13.80
2017-10-11T08:11:26.731Z,13.90
2017-10-11T08:13:54.643Z,14.00
2017-10-11T08:16:22.946Z,14.00
2017-10-11T08:18:50.443Z,14.10
2017-10-11T08:21:17.971Z,14.10
2017-10-11T08:23:46.239Z,14.20
2017-10-11T08:26:14.527Z,14.20
2017-10-11T08:28:42.450Z,14.30
2017-10-11T08:31:09.979Z,14.40
2017-10-11T08:33:37.488Z,14.50
2017-10-11T08:36:05.788Z,14.50
2017-10-11T08:38:33.323Z,14.70
2017-10-11T08:41:00.866Z,14.80
2017-10-11T08:43:29.140Z,14.90
2017-10-11T08:45:58.174Z,15.10
2017-10-11T08:48:25.696Z,15.20
2017-10-11T08:50:54.351Z,15.30
2017-10-11T08:53:21.863Z,15.40
2017-10-11T08:55:50.918Z,15.40
2017-10-11T08:58:18.427Z,15.50
2017-10-11T09:00:45.953Z,15.60
2017-10-11T09:03:13.464Z,15.70
2017-10-11T09:05:40.966Z,15.80
2017-10-11T09:08:10.065Z,15.90
2017-10-11T09:10:37.589Z,16.00
2017-10-11T09:13:05.862Z,16.10
2017-10-11T09:15:33.356Z,16.30
2017-10-11T09:18:01.631Z,16.50
2017-10-11T09:22:58.392Z,16.80
2017-10-11T09:25:26.309Z,16.90
2017-10-11T09:27:53.817Z,16.80
2017-10-11T09:30:21.329Z,16.80
2017-10-11T09:32:48.837Z,16.70
2017-10-11T09:35:17.110Z,16.80
2017-10-11T09:37:46.121Z,16.80
2017-10-11T09:40:13.632Z,16.90
2017-10-11T09:42:41.142Z,16.90
2017-10-11T09:45:08.647Z,17.00
2017-10-11T09:47:36.156Z,17.00
2017-10-11T09:50:03.668Z,17.00
2017-10-11T09:52:31.172Z,17.00
2017-10-11T09:54:59.443Z,17.10
2017-10-11T09:59:55.795Z,17.50
2017-10-11T10:02:23.707Z,17.40
2017-10-11T10:04:51.622Z,17.50
2017-10-11T10:07:19.156Z,17.60
2017-10-11T10:09:46.650Z,17.60
2017-10-11T10:12:14.174Z,17.70
2017-10-11T10:14:41.675Z,17.80
2017-10-11T10:17:09.208Z,17.80
2017-10-11T10:19:36.716Z,17.90
2017-10-11T10:22:04.246Z,18.00
2017-10-11T10:24:32.515Z,18.20
2017-10-11T10:27:00.460Z,18.30
2017-10-11T10:29:28.364Z,18.40
2017-10-11T10:31:56.661Z,18.40
2017-10-11T10:34:24.163Z,18.50
2017-10-11T10:36:51.683Z,18.70
2017-10-11T10:41:48.071Z,18.90
2017-10-11T10:44:15.963Z,19.10
2017-10-11T10:46:43.911Z,19.30
2017-10-11T10:49:12.196Z,19.30
2017-10-11T10:51:40.128Z,19.10
2017-10-11T10:54:07.636Z,18.90
2017-10-11T10:56:35.182Z,18.60
2017-10-11T10:59:02.691Z,18.40
2017-10-11T11:01:30.215Z,18.20
2017-10-11T11:03:57.707Z,18.10
2017-10-11T11:06:25.643Z,18.00
2017-10-11T11:08:53.159Z,17.90
2017-10-11T11:11:22.191Z,17.90
2017-10-11T11:13:50.471Z,17.80
2017-10-11T11:16:18.004Z,17.60
2017-10-11T11:18:45.902Z,17.50
2017-10-11T11:21:14.208Z,17.50
2017-10-11T11:23:42.108Z,17.50
2017-10-11T11:26:09.607Z,17.60
2017-10-11T11:28:37.127Z,17.50
2017-10-11T11:31:04.652Z,17.40
2017-10-11T11:36:01.819Z,17.30
2017-10-11T11:38:29.339Z,17.20
2017-10-11T11:40:56.838Z,17.20
2017-10-11T11:43:24.359Z,17.20
2017-10-11T11:45:52.628Z,17.10
2017-10-11T11:48:20.132Z,17.00
2017-10-11T11:50:47.648Z,17.00
2017-10-11T11:53:15.143Z,17.10
2017-10-11T11:55:43.419Z,17.10
2017-10-11T12:03:08.660Z,17.10
2017-10-11T12:05:36.556Z,17.10
2017-10-11T12:08:04.836Z,17.10
2017-10-11T12:10:32.772Z,17.00
2017-10-11T12:13:00.297Z,17.00
2017-10-11T12:15:27.795Z,17.00
2017-10-11T12:17:55.319Z,17.00
2017-10-11T12:20:23.595Z,17.10
2017-10-11T12:22:51.111Z,17.10
2017-10-11T12:25:18.639Z,17.20
2017-10-11T12:27:46.158Z,17.10
2017-10-11T12:30:13.663Z,17.10
2017-10-11T12:32:41.192Z,17.10
2017-10-11T12:35:08.748Z,17.10
2017-10-11T12:37:36.268Z,17.10
2017-10-11T12:40:03.791Z,17.00
2017-10-11T12:42:32.456Z,17.10
2017-10-11T12:45:00.354Z,17.20
2017-10-11T12:47:28.655Z,17.10
2017-10-11T12:49:56.171Z,17.00
2017-10-11T12:52:23.701Z,16.80
2017-10-11T12:54:51.979Z,16.90
2017-10-11T12:57:19.507Z,16.90
2017-10-11T12:59:47.019Z,16.80
2017-10-11T13:02:14.580Z,17.00
2017-10-11T13:04:42.843Z,17.10
2017-10-11T13:07:10.391Z,17.10
2017-10-11T13:09:37.891Z,17.00
2017-10-11T13:12:05.408Z,17.00
2017-10-11T13:14:32.939Z,17.00
2017-10-11T13:21:58.211Z,17.20
2017-10-11T13:24:25.729Z,17.20
2017-10-11T13:26:53.268Z,17.20
2017-10-11T13:29:20.783Z,17.20
2017-10-11T13:31:48.315Z,17.20
2017-10-11T13:34:16.212Z,17.30
2017-10-11T13:36:44.522Z,17.30
2017-10-11T13:39:12.012Z,17.30
2017-10-11T13:41:39.532Z,17.30
2017-10-11T13:44:07.027Z,17.30
2017-10-11T13:46:34.541Z,17.30
2017-10-11T13:51:30.903Z,17.20
2017-10-11T13:53:58.417Z,17.20
2017-10-11T13:56:25.923Z,17.20
2017-10-11T13:58:54.195Z,17.20
2017-10-11T14:01:22.103Z,17.30
2017-10-11T14:03:50.019Z,17.40
2017-10-11T14:06:18.297Z,17.40
2017-10-11T14:08:46.570Z,17.40
2017-10-11T14:11:14.260Z,17.40
2017-10-11T14:13:42.151Z,17.40
2017-10-11T14:16:10.051Z,17.50
2017-10-11T14:18:38.342Z,17.50
2017-10-11T14:21:05.903Z,17.40
2017-10-11T14:23:33.451Z,17.50
2017-10-11T14:26:01.727Z,17.50
2017-10-11T14:28:29.660Z,17.40
2017-10-11T14:30:57.164Z,17.40
2017-10-11T14:33:24.690Z,17.30
2017-10-11T14:35:53.067Z,17.30
2017-10-11T14:38:20.991Z,17.30
2017-10-11T14:40:48.529Z,17.40
2017-10-11T14:43:16.051Z,17.30
2017-10-11T14:48:13.258Z,17.40
2017-10-11T14:50:40.779Z,17.40
2017-10-11T14:53:08.703Z,17.40
2017-10-11T14:55:36.220Z,17.30
2017-10-11T14:58:04.147Z,17.40
2017-10-11T15:00:32.456Z,17.30
2017-10-11T15:02:59.984Z,17.30
2017-10-11T15:05:27.879Z,17.20
2017-10-11T15:07:56.567Z,17.30
2017-10-11T15:10:24.069Z,17.30
2017-10-11T15:12:52.740Z,17.30
2017-10-11T15:15:20.259Z,17.30
2017-10-11T15:17:47.870Z,17.30
2017-10-11T15:20:16.139Z,17.40
2017-10-11T15:22:44.075Z,17.50
2017-10-11T15:25:11.576Z,17.50
2017-10-11T15:27:39.126Z,17.40
2017-10-11T15:30:07.051Z,17.40
2017-10-11T15:32:36.108Z,17.30
2017-10-11T15:35:03.612Z,17.30
2017-10-11T15:37:31.143Z,17.20
2017-10-11T15:39:59.414Z,17.20
2017-10-11T15:42:26.984Z,17.20
2017-10-11T15:44:54.903Z,17.30
2017-10-11T15:47:22.432Z,17.20
2017-10-11T15:49:51.468Z,17.10
2017-10-11T15:52:18.962Z,17.10
2017-10-11T15:54:46.460Z,17.00
2017-10-11T15:57:14.352Z,17.10
2017-10-11T15:59:42.990Z,17.10
2017-10-11T16:02:10.892Z,17.10
2017-10-11T16:04:38.391Z,17.00
2017-10-11T16:07:05.891Z,16.90
2017-10-11T16:09:34.150Z,16.90
2017-10-11T16:12:01.656Z,16.90
2017-10-11T16:14:29.558Z,16.80
2017-10-11T16:16:57.452Z,16.80
2017-10-11T16:19:24.951Z,16.70
2017-10-11T16:21:52.847Z,16.70
2017-10-11T16:24:20.423Z,16.60
2017-10-11T16:26:47.927Z,16.60
2017-10-11T16:29:15.443Z,16.50
2017-10-11T16:31:42.952Z,16.50
2017-10-11T16:34:11.981Z,16.40
2017-10-11T16:36:39.493Z,16.40
2017-10-11T16:39:07.401Z,16.40
2017-10-11T16:41:35.674Z,16.40
2017-10-11T16:44:03.991Z,16.40
2017-10-11T16:46:31.525Z,16.30
2017-10-11T16:48:59.090Z,16.30
2017-10-11T16:51:26.607Z,16.20
2017-10-11T16:53:54.124Z,16.10
2017-10-11T16:56:21.643Z,16.00
2017-10-11T16:58:49.170Z,16.00
2017-10-11T17:01:16.671Z,15.90
2017-10-11T17:03:45.764Z,15.90
2017-10-11T17:06:13.299Z,15.90
2017-10-11T17:08:40.842Z,15.80
2017-10-11T17:18:34.979Z,15.70
2017-10-11T17:21:02.492Z,15.60
2017-10-11T17:23:30.023Z,15.50
2017-10-11T17:25:57.923Z,15.50
2017-10-11T17:28:25.860Z,15.40
2017-10-11T17:30:54.145Z,15.40
2017-10-11T17:35:50.631Z,15.20
2017-10-11T17:40:47.071Z,15.20
2017-10-11T17:43:15.383Z,15.10
2017-10-11T17:45:43.302Z,15.10
2017-10-11T17:50:39.741Z,15.10
2017-10-11T17:53:08.047Z,15.10
2017-10-11T17:55:35.951Z,15.10
2017-10-11T17:58:04.270Z,15.10
2017-10-11T18:00:32.207Z,15.00
2017-10-11T18:03:00.131Z,15.10
2017-10-11T18:05:28.403Z,15.10
2017-10-11T18:07:55.944Z,15.00
2017-10-11T18:10:23.458Z,14.90
2017-10-11T18:12:51.008Z,14.80
2017-10-11T18:15:18.911Z,14.80
2017-10-11T18:17:46.846Z,14.80
2017-10-11T18:20:14.379Z,14.80
2017-10-11T18:22:41.887Z,14.70
2017-10-11T18:25:09.400Z,14.70
2017-10-11T18:27:36.916Z,14.60
2017-10-11T18:30:04.452Z,14.60
2017-10-11T18:32:31.960Z,14.50
2017-10-11T18:34:59.531Z,14.50
2017-10-11T18:37:27.825Z,14.50
2017-10-11T18:39:55.376Z,14.50
2017-10-11T18:42:22.887Z,14.40
2017-10-11T18:44:50.832Z,14.30
2017-10-11T18:47:18.478Z,14.20
2017-10-11T18:49:46.383Z,14.20
2017-10-11T18:52:14.820Z,14.20
2017-10-11T18:54:42.326Z,14.10
2017-10-11T18:57:09.852Z,14.10
2017-10-11T18:59:37.379Z,14.00
2017-10-11T19:02:04.931Z,13.90
2017-10-11T19:04:32.450Z,13.90
2017-10-11T19:07:00.759Z,13.90
2017-10-11T19:09:28.411Z,13.90
2017-10-11T19:11:55.938Z,13.80
2017-10-11T19:14:25.615Z,13.80
2017-10-11T19:16:53.143Z,13.80
2017-10-11T19:19:21.454Z,13.80
2017-10-11T19:21:49.731Z,13.70
2017-10-11T19:24:19.445Z,13.70
2017-10-11T19:26:46.988Z,13.70
2017-10-11T19:29:14.935Z,13.60
2017-10-11T19:31:42.458Z,13.50
2017-10-11T19:34:10.020Z,13.40
2017-10-11T19:36:37.611Z,13.40
2017-10-11T19:39:05.127Z,13.40
2017-10-11T19:41:32.689Z,13.40
2017-10-11T19:46:29.508Z,13.30
2017-10-11T19:48:57.347Z,13.20
2017-10-11T19:51:25.647Z,13.20
2017-10-11T19:53:54.294Z,13.10
2017-10-11T20:01:20.331Z,13.10
2017-10-11T20:03:47.850Z,13.00
2017-10-11T20:06:15.392Z,13.00
2017-10-11T20:08:42.895Z,12.90
2017-10-11T20:11:11.199Z,13.00
2017-10-11T20:13:39.475Z,12.90
2017-10-11T20:16:06.971Z,12.90
2017-10-11T20:18:36.000Z,12.90
2017-10-11T20:23:32.407Z,13.00
2017-10-11T20:25:59.932Z,12.90
2017-10-11T20:28:27.495Z,12.80
2017-10-11T20:30:55.015Z,12.80
2017-10-11T20:33:22.544Z,12.80
2017-10-11T20:35:50.820Z,12.80
2017-10-11T20:38:18.756Z,12.80
2017-10-11T20:40:47.043Z,12.80
2017-10-11T20:43:15.345Z,12.80
2017-10-11T20:45:42.867Z,12.90
2017-10-11T20:48:10.389Z,12.70
2017-10-11T20:50:39.406Z,12.70
2017-10-11T20:53:07.704Z,12.80
2017-10-11T20:55:36.009Z,12.80
2017-10-11T20:58:03.532Z,12.70
2017-10-11T21:00:31.067Z,12.70
2017-10-11T21:02:58.585Z,12.60
2017-10-11T21:05:27.648Z,12.60
2017-10-11T21:07:55.168Z,12.50
2017-10-11T21:10:22.702Z,12.50
2017-10-11T21:12:50.219Z,12.50
2017-10-11T21:15:17.747Z,12.40
2017-10-11T21:22:43.038Z,12.50
2017-10-11T21:25:10.982Z,12.40
2017-10-11T21:27:38.507Z,12.40
2017-10-11T21:30:06.031Z,12.30
2017-10-11T21:32:33.535Z,12.30
2017-10-11T21:35:01.060Z,12.40
2017-10-11T21:37:28.590Z,12.30
2017-10-11T21:39:56.146Z,12.20
2017-10-11T21:42:23.672Z,12.20
2017-10-11T21:44:51.191Z,12.10
2017-10-11T21:47:19.105Z,12.10
2017-10-11T21:49:47.423Z,12.10
2017-10-11T21:52:15.707Z,12.10
2017-10-11T21:54:43.247Z,12.10
2017-10-11T21:57:12.260Z,12.10
2017-10-11T21:59:39.800Z,12.10
2017-10-11T22:02:07.323Z,12.00
2017-10-11T22:04:35.256Z,12.00
2017-10-11T22:07:02.778Z,12.10
2017-10-11T22:09:30.336Z,12.00
2017-10-11T22:11:57.864Z,12.00
2017-10-11T22:14:25.397Z,11.90
2017-10-11T22:16:53.287Z,12.00
2017-10-11T22:19:20.813Z,11.90
2017-10-11T22:21:48.334Z,11.90
2017-10-11T22:24:17.370Z,11.90
2017-10-11T22:26:45.647Z,11.90
2017-10-11T22:29:14.671Z,11.90
2017-10-11T22:36:41.532Z,11.90
2017-10-11T22:39:09.055Z,11.90
2017-10-11T22:41:38.086Z,11.80
2017-10-11T22:44:06.036Z,11.80
2017-10-11T22:46:35.050Z,11.80
2017-10-11T22:49:02.559Z,11.80
2017-10-11T22:51:30.847Z,11.70
2017-10-11T22:53:58.361Z,11.70
2017-10-11T22:56:27.382Z,11.60
2017-10-11T22:58:54.903Z,11.70
2017-10-11T23:01:23.551Z,11.60
2017-10-11T23:03:51.455Z,11.70
2017-10-11T23:06:18.969Z,11.60
2017-10-11T23:08:46.479Z,11.50
2017-10-11T23:11:13.992Z,11.50
2017-10-11T23:13:41.502Z,11.50
2017-10-11T23:16:09.771Z,11.50
2017-10-11T23:18:38.044Z,11.50
2017-10-11T23:21:06.328Z,11.50
2017-10-11T23:23:33.852Z,11.40
2017-10-11T23:26:01.376Z,11.40
2017-10-11T23:28:29.279Z,11.40
2017-10-11T23:30:57.542Z,11.50
2017-10-11T23:33:25.819Z,11.40
2017-10-11T23:35:53.325Z,11.40
2017-10-11T23:38:20.832Z,11.40
2017-10-11T23:40:48.344Z,11.40
2017-10-11T23:43:16.242Z,11.40
2017-10-11T23:45:43.763Z,11.30
2017-10-11T23:48:11.278Z,11.30
2017-10-11T23:50:39.173Z,11.20
2017-10-11T23:53:06.670Z,11.20
2017-10-11T23:55:34.957Z,11.20
2017-10-11T23:58:02.472Z,11.30
